Time;durP1;ratioP1;P1;durP2;ratioP2;P2;SDS_P1;SDS_P2;PMS_P1;PMS_P2;Temp;Humidity;BMP_temperature;BMP_pressure;BME280_temperature;BME280_humidity;BME280_pressure;Samples;Min_cycle;Max_cycle;Signal;HPM_P1;HPM_P2
2022/10/20 00:00:20;;;;;;;2.50;1.77;;;;;;;3.76;100.00;153482.59;5032568;28;20029;-86
2022/10/20 00:02:46;;;;;;;4.13;1.73;;;;;;;3.80;100.00;153491.53;5002997;28;20052;-85
2022/10/20 00:05:12;;;;;;;3.25;2.17;;;;;;;3.92;100.00;153520.91;5015983;28;20045;-83
2022/10/20 00:07:38;;;;;;;3.15;1.80;;;;;;;4.02;100.00;153546.47;5022107;28;20038;-86
2022/10/20 00:10:07;;;;;;;4.82;2.30;;;;;;;4.03;100.00;153550.31;4984955;28;20113;-86
2022/10/20 00:12:32;;;;;;;3.90;2.10;;;;;;;4.02;100.00;153546.47;4997718;28;20030;-85
2022/10/20 00:14:58;;;;;;;3.75;2.10;;;;;;;4.16;100.00;153580.94;5017430;28;20040;-77
2022/10/20 00:17:23;;;;;;;6.93;2.42;;;;;;;4.10;100.00;153566.91;4988496;28;20042;-82
2022/10/20 00:19:49;;;;;;;5.82;2.13;;;;;;;4.19;100.00;153589.91;4998956;28;20042;-82
2022/10/20 00:22:14;;;;;;;3.08;2.35;;;;;;;4.25;100.00;153603.94;5023998;28;20038;-80
2022/10/20 00:24:40;;;;;;;6.30;2.15;;;;;;;4.40;100.00;153642.25;4981981;28;20523;-85
2022/10/20 00:27:06;;;;;;;3.85;2.00;;;;;;;4.42;100.00;153647.38;5001790;28;20041;-86
2022/10/20 00:29:31;;;;;;;2.42;2.15;;;;;;;4.50;100.00;153666.53;4997274;28;20042;-88
2022/10/20 00:32:01;;;;;;;3.97;2.10;;;;;;;4.56;100.00;153681.91;5010884;28;20042;-85
2022/10/20 00:34:29;;;;;;;4.32;2.35;;;;;;;4.44;100.00;153652.47;4995442;28;20033;-88
2022/10/20 00:36:54;;;;;;;2.53;2.00;;;;;;;4.57;100.00;153684.44;5009442;28;20026;-86
2022/10/20 00:39:20;;;;;;;9.55;2.10;;;;;;;4.51;100.00;153667.84;5009886;28;20188;-86
2022/10/20 00:41:45;;;;;;;2.72;2.00;;;;;;;4.56;100.00;153680.59;5027520;28;20038;-84
2022/10/20 00:44:48;;;;;;;4.95;2.10;;;;;;;4.78;100.00;153735.53;5000952;28;20084;-86
2022/10/20 00:47:34;;;;;;;5.15;2.20;;;;;;;4.73;100.00;153722.75;4990565;28;20412;-82
2022/10/20 00:50:11;;;;;;;4.28;2.30;;;;;;;4.71;100.00;153717.66;4978821;28;20037;-83
2022/10/20 00:52:41;;;;;;;4.82;2.00;;;;;;;4.74;100.00;153726.59;5008364;28;20570;-86
2022/10/20 00:55:09;;;;;;;7.03;2.10;;;;;;;4.70;100.00;153715.13;5029109;28;20042;-87
2022/10/20 00:57:36;;;;;;;5.22;2.00;;;;;;;4.63;100.00;153698.47;5019814;28;20045;-86
2022/10/20 01:00:03;;;;;;;3.20;1.70;;;;;;;4.65;100.00;153703.59;5005678;28;20096;-86
2022/10/20 01:02:29;;;;;;;4.82;1.85;;;;;;;4.61;100.00;153694.63;4984843;28;20049;-85
2022/10/20 01:04:54;;;;;;;4.03;1.80;;;;;;;4.75;100.00;153729.19;4988996;28;20042;-83
2022/10/20 01:07:20;;;;;;;4.78;2.05;;;;;;;4.79;100.00;153739.41;5018673;28;20130;-86
2022/10/20 01:09:46;;;;;;;3.25;2.33;;;;;;;4.74;100.00;153725.34;4992708;28;20129;-84
2022/10/20 01:13:01;;;;;;;4.93;2.10;;;;;;;4.76;100.00;153730.44;5010629;28;20065;-83
2022/10/20 01:15:57;;;;;;;7.05;2.22;;;;;;;4.77;100.00;153733.03;5010681;28;20033;-83
2022/10/20 01:18:40;;;;;;;5.50;2.38;;;;;;;4.75;100.00;153727.91;5000741;28;20042;-79
2022/10/20 01:21:09;;;;;;;7.60;2.55;;;;;;;4.72;100.00;153721.50;4990160;28;20046;-82
2022/10/20 01:23:48;;;;;;;12.02;2.35;;;;;;;4.71;100.00;153717.66;4996489;28;20050;-85
2022/10/20 01:26:41;;;;;;;4.55;2.10;;;;;;;4.75;100.00;153727.91;5009300;28;20053;-85
2022/10/20 01:29:32;;;;;;;3.65;2.00;;;;;;;4.76;100.00;153730.44;4989347;28;21102;-81
2022/10/20 01:32:08;;;;;;;3.83;1.90;;;;;;;4.79;100.00;153739.41;4992974;28;20041;-83
2022/10/20 01:34:42;;;;;;;4.55;2.00;;;;;;;4.80;100.00;153741.97;5008836;28;20046;-83
2022/10/20 01:37:22;;;;;;;5.13;2.13;;;;;;;4.77;100.00;153734.28;4993767;28;20104;-83
2022/10/20 01:39:59;;;;;;;6.50;1.90;;;;;;;4.65;100.00;153703.59;4976198;28;20036;-81
2022/10/20 01:42:28;;;;;;;3.47;2.00;;;;;;;4.62;100.00;153695.97;5000509;28;20033;-83
2022/10/20 01:45:00;;;;;;;2.25;2.05;;;;;;;4.51;100.00;153669.09;4998924;28;20037;-80
2022/10/20 01:47:31;;;;;;;5.82;1.90;;;;;;;4.40;100.00;153641.00;4993075;28;20073;-83
2022/10/20 01:49:57;;;;;;;6.50;2.20;;;;;;;4.32;100.00;153621.84;5023879;28;20026;-84
2022/10/20 01:52:23;;;;;;;7.40;2.63;;;;;;;4.21;100.00;153593.72;5025834;28;20065;-80
2022/10/20 01:54:49;;;;;;;7.05;2.15;;;;;;;4.16;100.00;153582.22;4994801;28;20053;-83
2022/10/20 01:57:37;;;;;;;3.88;2.45;;;;;;;4.03;100.00;153549.00;5006309;28;20380;-81
2022/10/20 02:00:08;;;;;;;7.40;3.05;;;;;;;4.01;100.00;153543.91;4983393;28;20044;-84
2022/10/20 02:03:19;;;;;;;10.45;3.40;;;;;;;3.95;100.00;153528.59;5009386;28;20057;-85
2022/10/20 02:06:03;;;;;;;5.82;2.63;;;;;;;3.90;100.00;153517.13;4985993;28;20530;-86
2022/10/20 02:08:44;;;;;;;7.20;2.45;;;;;;;3.88;100.00;153511.97;5004127;28;20128;-82
2022/10/20 02:11:24;;;;;;;4.70;2.47;;;;;;;3.80;100.00;153491.53;4995136;28;20757;-83
2022/10/20 02:13:53;;;;;;;3.10;2.35;;;;;;;3.71;100.00;153469.81;4994989;28;20122;-82
2022/10/20 02:16:27;;;;;;;6.28;2.17;;;;;;;3.70;100.00;153468.56;4992756;28;20049;-86
2022/10/20 02:19:00;;;;;;;6.78;1.98;;;;;;;3.60;100.00;153441.72;4980066;28;20040;-83
2022/10/20 02:21:26;;;;;;;5.75;2.15;;;;;;;3.60;100.00;153441.72;5013687;28;20124;-80
2022/10/20 02:23:53;;;;;;;3.30;2.30;;;;;;;3.58;100.00;153437.94;5005780;28;20167;-79
2022/10/20 02:26:22;;;;;;;6.70;2.13;;;;;;;3.50;100.00;153417.47;4995865;28;20032;-82
2022/10/20 02:28:54;;;;;;;4.93;2.50;;;;;;;3.39;100.00;153390.69;5009953;28;20040;-79
2022/10/20 02:31:20;;;;;;;;;;;;;;;3.54;100.00;153426.41;4977044;28;20033;-80
2022/10/20 02:33:47;;;;;;;9.20;2.90;;;;;;;3.48;100.00;153413.69;5010380;28;19916;-80
2022/10/20 02:36:17;;;;;;;7.15;2.78;;;;;;;3.48;100.00;153413.69;5029084;28;20064;-80
2022/10/20 02:38:43;;;;;;;5.25;2.38;;;;;;;3.44;100.00;153402.16;5025891;28;20080;-80
2022/10/20 02:41:10;;;;;;;3.72;2.35;;;;;;;3.44;100.00;153402.16;4989188;28;20049;-77
2022/10/20 02:43:35;;;;;;;8.18;2.65;;;;;;;3.39;100.00;153390.69;5025051;28;20473;-77
2022/10/20 02:46:01;;;;;;;4.97;2.80;;;;;;;3.40;100.00;153393.22;5010775;28;20034;-80
2022/10/20 02:48:28;;;;;;;5.93;2.90;;;;;;;3.31;100.00;153371.53;5021828;28;20092;-79
2022/10/20 02:50:53;;;;;;;5.35;2.70;;;;;;;3.36;100.00;153381.75;5009920;28;20034;-79
2022/10/20 02:53:19;;;;;;;3.13;2.50;;;;;;;3.27;100.00;153361.28;4992105;28;20037;-80
2022/10/20 02:55:44;;;;;;;2.58;2.38;;;;;;;3.23;100.00;153349.81;5007326;28;20026;-77
2022/10/20 02:58:10;;;;;;;9.70;2.65;;;;;;;3.17;100.00;153334.53;5001090;28;20133;-81
2022/10/20 03:00:35;;;;;;;6.85;3.13;;;;;;;3.15;100.00;153329.41;5006138;28;20053;-80
2022/10/20 03:03:02;;;;;;;8.57;3.33;;;;;;;3.11;100.00;153321.75;4989195;28;20356;-78
2022/10/20 03:05:28;;;;;;;4.70;2.53;;;;;;;3.10;100.00;153317.91;5002160;28;20097;-80
2022/10/20 03:07:54;;;;;;;7.22;2.72;;;;;;;3.08;100.00;153312.78;4989904;28;20137;-79
2022/10/20 03:10:20;;;;;;;4.57;2.80;;;;;;;3.02;100.00;153297.50;5005980;28;20030;-81
2022/10/20 03:12:45;;;;;;;5.80;2.78;;;;;;;2.93;100.00;153277.03;5008364;28;20030;-78
2022/10/20 03:15:11;;;;;;;3.53;3.10;;;;;;;2.90;100.00;153268.09;5025314;28;20034;-79
2022/10/20 03:17:37;;;;;;;6.63;3.25;;;;;;;2.88;100.00;153263.00;5026156;28;20026;-80
2022/10/20 03:20:03;;;;;;;9.30;3.00;;;;;;;2.85;100.00;153256.63;5008672;28;20108;-77
2022/10/20 03:22:29;;;;;;;4.00;2.75;;;;;;;2.88;100.00;153263.00;5009783;28;20061;-82
2022/10/20 03:24:54;;;;;;;8.13;2.90;;;;;;;2.85;100.00;153255.38;5004235;28;20025;-79
2022/10/20 03:27:20;;;;;;;4.80;3.00;;;;;;;2.81;100.00;153246.44;5011324;28;20037;-79
2022/10/20 03:29:46;;;;;;;4.47;3.08;;;;;;;2.84;100.00;153252.81;5010481;28;20033;-78
2022/10/20 03:32:12;;;;;;;5.28;3.30;;;;;;;2.90;100.00;153268.09;5009007;28;20502;-78
2022/10/20 03:34:38;;;;;;;3.47;2.58;;;;;;;2.93;100.00;153277.03;5009207;28;20499;-79
2022/10/20 03:37:03;;;;;;;6.28;3.20;;;;;;;2.92;100.00;153273.25;4996841;28;20048;-80
2022/10/20 03:39:29;;;;;;;5.93;3.20;;;;;;;2.84;100.00;153252.81;5024336;28;20376;-79
2022/10/20 03:41:56;;;;;;;5.82;3.63;;;;;;;2.88;100.00;153263.00;4993398;28;20044;-78
2022/10/20 03:44:23;;;;;;;7.90;3.25;;;;;;;2.81;100.00;153245.19;5009290;28;20690;-79
2022/10/20 03:46:48;;;;;;;7.20;3.20;;;;;;;2.83;100.00;153251.53;5013288;28;20441;-79
2022/10/20 03:49:14;;;;;;;8.45;3.65;;;;;;;2.77;100.00;153236.25;5010973;28;20072;-80
2022/10/20 03:51:40;;;;;;;7.63;3.63;;;;;;;2.73;100.00;153227.31;5002160;28;20045;-79
2022/10/20 03:54:05;;;;;;;6.00;3.70;;;;;;;2.66;100.00;153209.44;5023998;28;20034;-79
2022/10/20 03:56:31;;;;;;;7.20;3.40;;;;;;;2.55;100.00;153180.09;5012632;28;20068;-80
2022/10/20 03:58:57;;;;;;;4.53;3.45;;;;;;;2.57;100.00;153186.44;4995696;28;20072;-80
2022/10/20 04:01:28;;;;;;;7.82;3.58;;;;;;;2.61;100.00;153196.66;4993780;28;20900;-80
2022/10/20 04:03:54;;;;;;;9.57;3.83;;;;;;;2.59;100.00;153191.56;5007644;28;20454;-79
2022/10/20 04:06:19;;;;;;;7.32;3.35;;;;;;;2.50;100.00;153168.59;5008819;28;20046;-79
2022/10/20 04:08:45;;;;;;;10.13;3.83;;;;;;;2.57;100.00;153186.44;5025645;28;20101;-79
2022/10/20 04:11:11;;;;;;;6.95;4.35;;;;;;;2.54;100.00;153178.78;5005373;28;20029;-80
2022/10/20 04:13:37;;;;;;;7.65;4.25;;;;;;;2.52;100.00;153175.00;5010451;28;20029;-80
2022/10/20 04:16:02;;;;;;;8.73;4.05;;;;;;;2.50;100.00;153168.59;5010368;28;20041;-77
2022/10/20 04:18:28;;;;;;;7.47;3.95;;;;;;;2.52;100.00;153173.69;5007088;28;21667;-78
2022/10/20 04:20:54;;;;;;;12.55;4.13;;;;;;;2.46;100.00;153158.38;5007174;28;20034;-77
2022/10/20 04:23:19;;;;;;;5.20;3.97;;;;;;;2.50;100.00;153169.84;4997956;28;20595;-79
2022/10/20 04:25:47;;;;;;;11.13;4.28;;;;;;;2.48;100.00;153163.47;5023419;28;20064;-78
2022/10/20 04:28:18;;;;;;;6.88;4.05;;;;;;;2.42;100.00;153148.19;4999406;28;20037;-78
2022/10/20 04:30:45;;;;;;;7.57;4.53;;;;;;;2.49;100.00;153166.06;4996551;28;20064;-78
2022/10/20 04:33:11;;;;;;;7.47;3.80;;;;;;;2.45;100.00;153157.13;4987352;28;20052;-78
2022/10/20 04:35:37;;;;;;;4.45;3.70;;;;;;;2.49;100.00;153166.06;5026099;28;20041;-79
2022/10/20 04:38:03;;;;;;;6.30;4.25;;;;;;;2.43;100.00;153150.72;4993149;28;20125;-78
2022/10/20 04:40:29;;;;;;;5.85;3.55;;;;;;;2.44;100.00;153153.28;5010709;28;20144;-78
2022/10/20 04:42:57;;;;;;;7.15;4.10;;;;;;;2.37;100.00;153135.41;4991546;28;20041;-80
2022/10/20 04:45:23;;;;;;;6.35;3.85;;;;;;;2.37;100.00;153136.69;5027385;28;20034;-78
2022/10/20 04:47:48;;;;;;;7.20;4.20;;;;;;;2.32;100.00;153125.22;5009604;28;20537;-78
2022/10/20 04:50:13;;;;;;;9.30;5.43;;;;;;;2.38;100.00;153137.97;5007579;28;20034;-78
2022/10/20 04:52:39;;;;;;;9.45;5.00;;;;;;;2.39;100.00;153141.78;5006878;28;20747;-78
2022/10/20 04:55:05;;;;;;;9.02;5.15;;;;;;;2.41;100.00;153145.59;5018716;28;20034;-79
2022/10/20 04:57:30;;;;;;;9.35;5.30;;;;;;;2.49;100.00;153166.06;5015362;28;20025;-79
2022/10/20 04:59:56;;;;;;;12.20;5.43;;;;;;;2.54;100.00;153178.78;5016128;28;20030;-78
2022/10/20 05:02:23;;;;;;;9.68;5.50;;;;;;;2.53;100.00;153177.53;5031601;28;20033;-80
2022/10/20 05:04:49;;;;;;;10.88;5.88;;;;;;;2.63;100.00;153201.75;5030639;28;20045;-79
2022/10/20 05:07:15;;;;;;;11.88;5.78;;;;;;;2.63;100.00;153201.75;4987786;28;20046;-78
2022/10/20 05:09:40;;;;;;;10.65;5.85;;;;;;;2.78;100.00;153237.50;5017637;28;20026;-77
2022/10/20 05:12:06;;;;;;;10.73;5.50;;;;;;;2.83;100.00;153250.28;5014214;28;20018;-80
2022/10/20 05:14:32;;;;;;;11.30;5.70;;;;;;;2.89;100.00;153265.56;4997660;28;20180;-79
2022/10/20 05:16:57;;;;;;;13.10;5.82;;;;;;;2.89;100.00;153265.56;5012360;28;20069;-81
2022/10/20 05:19:23;;;;;;;11.88;5.82;;;;;;;2.81;100.00;153246.44;4999364;28;20129;-78
2022/10/20 05:21:48;;;;;;;11.82;6.30;;;;;;;2.81;100.00;153245.19;4994711;28;20821;-80
2022/10/20 05:24:16;;;;;;;12.05;6.50;;;;;;;2.91;100.00;153270.69;5008773;28;20534;-80
2022/10/20 05:26:42;;;;;;;9.35;5.63;;;;;;;2.97;100.00;153285.97;5007399;28;20026;-79
2022/10/20 05:29:09;;;;;;;14.57;6.03;;;;;;;3.15;100.00;153330.69;5013603;28;20049;-79
2022/10/20 05:31:41;;;;;;;10.63;5.85;;;;;;;3.28;100.00;153362.59;5001600;28;20499;-81
2022/10/20 05:34:07;;;;;;;14.85;6.70;;;;;;;3.37;100.00;153384.28;4995768;28;20037;-79
2022/10/20 05:36:33;;;;;;;11.45;5.43;;;;;;;3.45;100.00;153406.00;5023442;28;20454;-79
2022/10/20 05:38:58;;;;;;;12.05;5.75;;;;;;;3.42;100.00;153398.31;5008423;28;20750;-79
2022/10/20 05:41:29;;;;;;;8.38;5.22;;;;;;;3.48;100.00;153413.69;5023743;28;20040;-79
2022/10/20 05:44:00;;;;;;;9.65;5.68;;;;;;;3.50;100.00;153417.47;5008903;28;20053;-79
2022/10/20 05:46:29;;;;;;;8.52;5.10;;;;;;;3.49;100.00;153414.94;5004266;28;20409;-79
2022/10/20 05:48:57;;;;;;;9.27;5.38;;;;;;;3.54;100.00;153426.41;5018656;28;20033;-80
2022/10/20 05:51:26;;;;;;;8.50;4.72;;;;;;;3.54;100.00;153426.41;4993072;28;20034;-80
2022/10/20 05:53:54;;;;;;;11.55;5.40;;;;;;;3.52;100.00;153422.56;4991137;28;20022;-80
2022/10/20 05:56:21;;;;;;;9.18;5.10;;;;;;;3.63;100.00;153449.41;5007762;28;20503;-80
2022/10/20 05:58:47;;;;;;;9.82;5.13;;;;;;;3.59;100.00;153439.19;5007941;28;20030;-80
2022/10/20 06:01:23;;;;;;;9.73;4.70;;;;;;;3.60;100.00;153443.03;5007779;28;20128;-80
2022/10/20 06:03:59;;;;;;;8.73;5.05;;;;;;;3.55;100.00;153430.25;5004241;28;20102;-80
2022/10/20 06:06:29;;;;;;;9.30;5.38;;;;;;;3.64;100.00;153453.25;4993025;28;20029;-79
2022/10/20 06:08:57;;;;;;;8.70;5.18;;;;;;;3.72;100.00;153471.13;5001340;28;20250;-78
2022/10/20 06:11:23;;;;;;;14.70;6.10;;;;;;;3.70;100.00;153467.28;5003273;28;20123;-83
2022/10/20 06:13:49;;;;;;;9.02;5.90;;;;;;;3.85;100.00;153505.59;5007089;28;20030;-82
2022/10/20 06:16:23;;;;;;;12.45;6.05;;;;;;;3.95;100.00;153529.84;4990777;28;20056;-78
2022/10/20 06:18:49;;;;;;;10.68;6.13;;;;;;;4.04;100.00;153552.84;5008465;28;20087;-80
2022/10/20 06:21:24;;;;;;;12.48;5.93;;;;;;;4.16;100.00;153582.22;5013719;28;20113;-77
2022/10/20 06:23:50;;;;;;;9.70;5.95;;;;;;;4.19;100.00;153589.91;4988315;28;20057;-78
2022/10/20 06:26:22;;;;;;;14.52;7.05;;;;;;;4.24;100.00;153601.41;4990525;28;20037;-79
2022/10/20 06:28:50;;;;;;;11.13;7.00;;;;;;;4.28;100.00;153611.63;5001757;28;20037;-79
2022/10/20 06:31:21;;;;;;;14.35;7.50;;;;;;;4.32;100.00;153621.84;4989648;28;20391;-79
2022/10/20 06:33:50;;;;;;;10.40;6.85;;;;;;;4.42;100.00;153646.09;5006094;28;20022;-78
2022/10/20 06:36:16;;;;;;;12.20;6.28;;;;;;;4.52;100.00;153671.69;5007809;28;20026;-78
2022/10/20 06:38:42;;;;;;;9.60;6.32;;;;;;;4.58;100.00;153685.75;5021722;28;20030;-78
2022/10/20 06:41:11;;;;;;;14.60;6.00;;;;;;;4.62;100.00;153695.97;5003465;28;20034;-79
2022/10/20 06:43:36;;;;;;;11.63;6.28;;;;;;;4.72;100.00;153721.50;4995623;28;20033;-78
2022/10/20 06:46:04;;;;;;;9.73;5.75;;;;;;;4.81;100.00;153743.25;5009320;28;20030;-78
2022/10/20 06:48:30;;;;;;;11.13;5.40;;;;;;;4.91;100.00;153767.50;5005945;28;20109;-79
2022/10/20 06:50:57;;;;;;;10.82;5.40;;;;;;;4.95;100.00;153777.72;5020852;28;20057;-79
2022/10/20 06:53:23;;;;;;;10.40;5.43;;;;;;;5.01;100.00;153794.38;5004622;28;20061;-80
2022/10/20 06:56:05;;;;;;;6.72;5.18;;;;;;;5.11;100.00;153818.66;5029888;28;20026;-79
2022/10/20 06:58:32;;;;;;;12.27;5.20;;;;;;;5.18;100.00;153835.22;5007765;28;20036;-79
2022/10/20 07:00:59;;;;;;;9.30;4.80;;;;;;;5.22;100.00;153846.75;4985945;28;20104;-79
2022/10/20 07:03:25;;;;;;;9.35;5.25;;;;;;;5.37;100.00;153883.84;5007186;28;20094;-80
2022/10/20 07:05:51;;;;;;;10.02;4.45;;;;;;;5.39;100.00;153887.69;5008506;28;20026;-79
2022/10/20 07:08:16;;;;;;;10.60;5.15;;;;;;;5.47;100.00;153909.41;5012067;28;20376;-80
2022/10/20 07:10:42;;;;;;;12.57;4.88;;;;;;;5.52;100.00;153920.94;4992203;28;20026;-78
2022/10/20 07:13:07;;;;;;;9.68;4.43;;;;;;;5.61;100.00;153943.94;5021627;28;20155;-77
2022/10/20 07:15:33;;;;;;;11.52;4.28;;;;;;;5.72;100.00;153969.50;5006797;28;20045;-78
2022/10/20 07:17:58;;;;;;;10.25;4.70;;;;;;;5.80;100.00;153991.25;5007243;28;20080;-78
2022/10/20 07:20:24;;;;;;;9.48;4.45;;;;;;;5.89;100.00;154011.72;5005386;28;20046;-78
2022/10/20 07:22:50;;;;;;;10.38;4.15;;;;;;;6.04;100.00;154050.13;5023639;28;20037;-80
2022/10/20 07:25:15;;;;;;;6.90;4.30;;;;;;;6.12;100.00;154070.63;5022159;28;20057;-78
2022/10/20 07:27:41;;;;;;;7.68;3.92;;;;;;;6.18;100.00;154085.94;4990767;28;20033;-77
2022/10/20 07:30:06;;;;;;;6.38;3.80;;;;;;;6.33;100.00;154121.75;5009807;28;20075;-79
2022/10/20 07:32:32;;;;;;;14.00;3.85;;;;;;;6.24;100.00;154101.28;5022074;28;20487;-79
2022/10/20 07:34:57;;;;;;;6.05;3.88;;;;;;;6.36;100.00;154130.69;4988561;28;20034;-79
2022/10/20 07:37:23;;;;;;;8.00;3.53;;;;;;;6.38;100.00;154134.56;4991823;28;20034;-78
2022/10/20 07:39:49;;;;;;;6.30;3.33;;;;;;;6.35;100.00;154126.91;5019569;28;20813;-78
2022/10/20 07:42:14;;;;;;;5.07;3.20;;;;;;;6.41;100.00;154143.50;5003794;28;20045;-79
2022/10/20 07:44:40;;;;;;;5.95;3.22;;;;;;;6.50;100.00;154165.28;5014865;28;20022;-78
2022/10/20 07:47:05;;;;;;;5.10;3.53;;;;;;;6.60;100.00;154190.84;5008338;28;20615;-78
2022/10/20 07:49:31;;;;;;;6.50;3.53;;;;;;;6.64;100.00;154199.81;5006614;28;20140;-78
2022/10/20 07:51:56;;;;;;;8.80;3.20;;;;;;;6.68;100.00;154210.03;5002404;28;20539;-78
2022/10/20 07:54:22;;;;;;;7.25;2.85;;;;;;;6.79;100.00;154238.19;5022032;28;20088;-77
2022/10/20 07:56:48;;;;;;;9.90;3.20;;;;;;;6.78;100.00;154235.66;5003279;28;20182;-78
2022/10/20 07:59:14;;;;;;;5.85;3.25;;;;;;;6.94;100.00;154274.03;5003018;28;20061;-79
2022/10/20 08:01:40;;;;;;;5.97;3.33;;;;;;;7.04;100.00;154299.63;5006768;28;20069;-77
2022/10/20 08:04:05;;;;;;;6.38;3.30;;;;;;;6.94;100.00;154274.03;5008168;28;20076;-78
2022/10/20 08:06:31;;;;;;;7.32;2.78;;;;;;;6.95;100.00;154277.88;5023412;28;20074;-77
2022/10/20 08:08:57;;;;;;;6.22;2.80;;;;;;;7.01;100.00;154291.97;5009503;28;20120;-78
2022/10/20 08:11:23;;;;;;;8.75;3.50;;;;;;;7.10;100.00;154315.03;5007569;28;20081;-81
2022/10/20 08:13:48;;;;;;;7.00;3.35;;;;;;;7.20;100.00;154339.34;5008527;28;20293;-78
2022/10/20 08:16:14;;;;;;;7.25;3.08;;;;;;;7.30;100.00;154363.66;4982809;28;20038;-79
2022/10/20 08:18:41;;;;;;;8.88;3.05;;;;;;;7.40;100.00;154389.22;5010549;28;20697;-80
2022/10/20 08:21:15;;;;;;;5.40;3.20;;;;;;;7.44;100.00;154399.50;5025154;28;20025;-78
2022/10/20 08:23:43;;;;;;;7.28;3.28;;;;;;;7.39;100.00;154387.97;5025089;28;20056;-80
2022/10/20 08:26:10;;;;;;;6.65;3.05;;;;;;;7.37;100.00;154382.84;5026155;28;20091;-80
2022/10/20 08:28:36;;;;;;;6.18;2.90;;;;;;;7.40;100.00;154390.53;5012816;28;20052;-77
2022/10/20 08:31:06;;;;;;;4.47;2.58;;;;;;;7.36;100.00;154379.00;4997988;28;20033;-77
2022/10/20 08:33:32;;;;;;;5.45;2.90;;;;;;;7.32;100.00;154370.03;5012020;28;20033;-78
2022/10/20 08:36:04;;;;;;;7.90;3.05;;;;;;;7.39;100.00;154387.97;5011084;28;20030;-79
2022/10/20 08:38:29;;;;;;;6.68;2.67;;;;;;;7.40;100.00;154389.22;5007812;28;20088;-78
2022/10/20 08:40:56;;;;;;;7.72;3.00;;;;;;;7.54;100.00;154425.09;4995699;28;20041;-78
2022/10/20 08:43:22;;;;;;;4.47;2.95;;;;;;;7.55;100.00;154426.34;4989299;28;20034;-79
2022/10/20 08:45:47;;;;;;;5.65;2.42;;;;;;;7.60;100.00;154439.19;5010347;28;20041;-77
2022/10/20 08:48:26;;;;;;;5.13;2.70;;;;;;;7.64;100.00;154448.16;5007533;28;20124;-78
2022/10/20 08:50:52;;;;;;;4.50;2.42;;;;;;;7.64;100.00;154448.16;5000953;28;20083;-80
2022/10/20 08:53:21;;;;;;;5.70;2.75;;;;;;;7.60;100.00;154439.19;5011777;28;20034;-81
2022/10/20 08:55:47;;;;;;;5.38;2.63;;;;;;;7.68;100.00;154459.66;5009850;28;20034;-81
2022/10/20 08:58:15;;;;;;;6.38;2.53;;;;;;;7.74;100.00;154475.06;4991940;28;20049;-81
2022/10/20 09:00:42;;;;;;;8.18;2.53;;;;;;;7.74;100.00;154473.72;5012067;28;20041;-80
2022/10/20 09:03:23;;;;;;;3.60;2.30;;;;;;;7.82;100.00;154494.25;5025536;28;20037;-80
2022/10/20 09:06:18;;;;;;;8.00;2.55;;;;;;;7.89;100.00;154510.88;5023842;28;20030;-81
2022/10/20 09:08:45;;;;;;;5.25;2.67;;;;;;;7.94;100.00;154523.69;4972111;28;20046;-79
2022/10/20 09:11:18;;;;;;;5.45;3.17;;;;;;;8.05;100.00;154550.59;4996187;28;20633;-80
2022/10/20 09:13:44;;;;;;;7.57;2.50;;;;;;;8.13;100.00;154571.09;4994391;28;20049;-78
2022/10/20 09:16:22;;;;;;;8.48;2.35;;;;;;;8.30;100.00;154613.34;5010884;28;20034;-79
2022/10/20 09:18:53;;;;;;;5.20;2.67;;;;;;;8.44;100.00;154649.28;5012011;28;20034;-82
2022/10/20 09:21:21;;;;;;;4.72;2.20;;;;;;;8.37;100.00;154631.31;4988932;28;20128;-81
2022/10/20 09:23:51;;;;;;;3.95;2.58;;;;;;;8.31;100.00;154615.94;4996857;28;20038;-79
2022/10/20 09:26:26;;;;;;;13.10;2.78;;;;;;;8.31;100.00;154615.94;4979781;28;20508;-78
2022/10/20 09:29:05;;;;;;;6.28;2.50;;;;;;;8.43;100.00;154645.44;5008893;28;20041;-79
2022/10/20 09:31:33;;;;;;;5.13;2.95;;;;;;;8.46;100.00;154653.16;5000867;28;20030;-81
2022/10/20 09:34:00;;;;;;;5.47;2.78;;;;;;;8.47;100.00;154656.94;5011293;28;20034;-79
2022/10/20 09:36:33;;;;;;;6.57;2.70;;;;;;;8.62;100.00;154692.84;4977882;28;20045;-82
2022/10/20 09:39:00;;;;;;;4.13;2.63;;;;;;;8.61;100.00;154690.25;4997180;28;20038;-81
2022/10/20 09:41:32;;;;;;;5.78;2.92;;;;;;;8.61;100.00;154690.25;5015086;28;20042;-79
2022/10/20 09:44:02;;;;;;;9.15;2.25;;;;;;;8.59;100.00;154686.44;5001900;28;20041;-79
2022/10/20 09:46:33;;;;;;;3.83;2.78;;;;;;;8.66;100.00;154704.34;5024741;28;20060;-79
2022/10/20 09:48:59;;;;;;;9.15;2.97;;;;;;;8.82;100.00;154744.09;5026007;28;20041;-79
2022/10/20 09:51:27;;;;;;;5.53;2.72;;;;;;;8.80;100.00;154737.66;5010616;28;20042;-80
2022/10/20 09:53:56;;;;;;;5.32;2.60;;;;;;;8.82;100.00;154742.84;5008528;28;20543;-78
2022/10/20 09:56:24;;;;;;;5.57;2.75;;;;;;;9.10;100.00;154813.31;4994148;28;20045;-80
2022/10/20 09:58:50;;;;;;;5.40;2.58;;;;;;;9.27;100.00;154856.88;5024768;28;20029;-80
2022/10/20 10:01:17;;;;;;;4.05;2.40;;;;;;;9.46;100.00;154903.06;5007711;28;20034;-80
2022/10/20 10:03:47;;;;;;;4.00;2.45;;;;;;;9.47;100.00;154905.59;5004275;28;20026;-78
2022/10/20 10:06:42;;;;;;;6.38;2.55;;;;;;;9.56;100.00;154928.66;4989384;28;20065;-82
2022/10/20 10:09:36;;;;;;;3.80;2.30;;;;;;;9.59;100.00;154935.06;5010180;28;20042;-79
2022/10/20 10:12:14;;;;;;;5.32;2.67;;;;;;;9.69;100.00;154960.75;5011562;28;20109;-78
2022/10/20 10:15:21;;;;;;;5.70;2.40;;;;;;;9.80;100.00;154987.69;5006990;28;20037;-78
2022/10/20 10:17:48;;;;;;;3.08;2.20;;;;;;;9.84;100.00;154997.94;4949688;28;20225;-79
2022/10/20 10:20:16;;;;;;;4.18;2.00;;;;;;;9.97;100.00;155030.00;4986745;28;20057;-80
2022/10/20 10:22:42;;;;;;;3.83;2.42;;;;;;;9.97;100.00;155031.25;5002400;28;20732;-79
2022/10/20 10:25:34;;;;;;;6.50;2.40;;;;;;;10.12;100.00;155069.72;5004812;28;20068;-80
2022/10/20 10:28:08;;;;;;;3.63;1.90;;;;;;;10.32;100.00;155118.50;5002218;28;20041;-79
2022/10/20 10:30:36;;;;;;;4.30;1.90;;;;;;;10.52;100.00;155168.56;5011430;28;20056;-82
2022/10/20 10:33:23;;;;;;;5.38;2.00;;;;;;;10.58;100.00;155183.94;4997284;28;20019;-79
2022/10/20 10:35:49;;;;;;;4.50;2.28;;;;;;;10.63;100.00;155196.78;5012130;28;20099;-80
2022/10/20 10:38:14;;;;;;;4.65;1.80;;;;;;;10.83;100.00;155245.50;5011136;28;20067;-81
2022/10/20 10:40:46;;;;;;;7.10;2.40;;;;;;;10.96;100.00;155277.59;5029777;28;20622;-80
2022/10/20 10:43:41;;;;;;;7.40;2.05;;;;;;;11.07;100.00;155305.84;5014977;28;20053;-78
2022/10/20 10:46:15;;;;;;;3.75;2.13;;;;;;;11.09;96.47;155310.97;4994159;28;20034;-79
2022/10/20 10:49:07;;;;;;;6.68;2.30;;;;;;;11.15;95.79;155325.09;5008151;28;20034;-80
2022/10/20 10:52:12;;;;;;;3.33;2.00;;;;;;;11.23;95.36;155346.91;5012772;28;20038;-80
2022/10/20 10:54:53;;;;;;;3.42;1.80;;;;;;;11.10;95.05;155314.81;5007888;28;20622;-80
2022/10/20 10:57:39;;;;;;;4.47;2.00;;;;;;;11.14;96.25;155322.53;5015767;28;20087;-81
2022/10/20 11:00:13;;;;;;;3.90;2.05;;;;;;;10.95;95.04;155276.34;5017514;28;20030;-83
2022/10/20 11:03:21;;;;;;;3.55;2.10;;;;;;;10.94;96.73;155272.47;5007170;28;20483;-81
2022/10/20 11:06:11;;;;;;;3.25;2.03;;;;;;;11.16;95.91;155328.94;5012316;28;20109;-81
2022/10/20 11:09:10;;;;;;;4.13;2.53;;;;;;;11.45;94.63;155402.13;5003064;28;20084;-82
2022/10/20 11:12:04;;;;;;;4.38;2.60;;;;;;;11.74;91.98;155472.72;5017400;28;20033;-78
2022/10/20 11:15:04;;;;;;;4.03;2.63;;;;;;;11.90;92.05;155512.56;5008807;28;20048;-80
2022/10/20 11:17:47;;;;;;;4.07;2.90;;;;;;;11.99;91.42;155536.94;4994820;28;20136;-81
2022/10/20 11:20:23;;;;;;;3.97;2.65;;;;;;;11.87;89.64;155507.38;5019645;28;20072;-80
2022/10/20 11:23:20;;;;;;;6.00;2.50;;;;;;;11.71;89.89;155465.00;4995936;28;20041;-79
2022/10/20 11:26:04;;;;;;;4.50;1.95;;;;;;;11.44;90.43;155398.25;5025486;28;20068;-80
2022/10/20 11:28:43;;;;;;;4.50;2.53;;;;;;;11.27;92.66;155355.91;5008342;28;20049;-77
2022/10/20 11:31:15;;;;;;;4.20;2.20;;;;;;;11.44;96.06;155398.25;5009847;28;20038;-77
2022/10/20 11:33:44;;;;;;;;;;;;;;;11.44;93.95;155399.53;5000638;28;20065;-78
2022/10/20 11:36:17;;;;;;;4.57;2.45;;;;;;;11.28;92.36;155359.78;5009898;28;20364;-78
2022/10/20 11:38:48;;;;;;;2.78;2.38;;;;;;;11.50;93.14;155414.94;4994613;28;20026;-77